Leonard, Michigan
Current Conditions -  °F | °C
As of 10:34 PM on Monday 20 Oct 2014 (Local Time) from KD95 Reporting Station
Overcast Overcast  
Wind Chill: 46°   Ceiling: 1900
Heat Index: 49°   Visibility: 10mi
Dew Point: 44°   Wind: 7mph
Humidity: 83%   Direction: 340°NNW
Pressure: 29.87"   Gusts: NA
Location:  42.87°N, 83.14°W
Report Text: KD95 210234Z AUTO 34006KT 10SM OVC019 10/07 A2987 RMK AO2 T00950068
Loading
Personal Weather Stations






























Interactive Weather Map
Tropical Storm Tracking
New forecast layout! Learn more

10-Day Weather Forecast

Advertisements
Track Severe Weather on mobile